createdAt,value
2019-04-07T00:01:30.570Z,82.40
2019-04-07T00:03:59.784Z,82.40
2019-04-07T00:06:29.434Z,82.30
2019-04-07T00:08:57.588Z,82.90
2019-04-07T00:11:26.632Z,82.00
2019-04-07T00:13:54.138Z,82.00
2019-04-07T00:16:21.855Z,82.10
2019-04-07T00:18:49.563Z,82.10
2019-04-07T00:21:18.559Z,82.10
2019-04-07T00:23:47.842Z,81.80
2019-04-07T00:26:15.542Z,82.20
2019-04-07T00:28:43.637Z,82.40
2019-04-07T00:31:10.979Z,82.50
2019-04-07T00:33:37.863Z,81.80
2019-04-07T00:36:06.167Z,82.20
2019-04-07T00:38:34.705Z,81.90
2019-04-07T00:41:03.220Z,82.30
2019-04-07T00:43:30.599Z,82.20
2019-04-07T00:45:59.367Z,82.10
2019-04-07T00:48:26.341Z,82.50
2019-04-07T00:50:55.898Z,82.10
2019-04-07T00:53:23.807Z,82.30
2019-04-07T00:55:51.308Z,82.10
2019-04-07T00:58:19.559Z,82.10
2019-04-07T01:00:48.066Z,82.00
2019-04-07T01:03:15.584Z,82.00
2019-04-07T01:05:43.551Z,82.00
2019-04-07T01:08:10.934Z,81.90
2019-04-07T01:10:38.412Z,81.80
2019-04-07T01:13:05.566Z,81.80
2019-04-07T01:15:33.070Z,81.70
2019-04-07T01:18:01.384Z,81.80
2019-04-07T01:20:29.580Z,81.80
2019-04-07T01:22:57.352Z,81.60
2019-04-07T01:25:25.625Z,81.70
2019-04-07T01:27:53.435Z,81.40
2019-04-07T01:30:21.473Z,81.20
2019-04-07T01:32:49.955Z,81.20
2019-04-07T01:35:17.947Z,81.20
2019-04-07T01:37:45.995Z,81.10
2019-04-07T01:40:13.671Z,81.00
2019-04-07T01:42:48.763Z,81.20
2019-04-07T01:45:51.678Z,80.60
2019-04-07T01:48:26.784Z,81.00
2019-04-07T01:51:13.494Z,81.00
2019-04-07T01:53:51.061Z,81.80
2019-04-07T01:56:27.269Z,81.30
2019-04-07T01:59:05.321Z,81.30
2019-04-07T02:01:51.743Z,81.10
2019-04-07T02:04:51.349Z,80.90
2019-04-07T02:07:42.695Z,80.80
2019-04-07T02:10:37.199Z,81.00
2019-04-07T02:13:21.501Z,81.00
2019-04-07T02:15:56.199Z,81.10
2019-04-07T02:18:31.247Z,80.70
2019-04-07T02:21:07.356Z,81.00
2019-04-07T02:23:57.903Z,80.90
2019-04-07T02:26:30.250Z,80.80
2019-04-07T02:29:14.999Z,80.60
2019-04-07T02:32:08.059Z,80.80
2019-04-07T02:34:50.918Z,81.50
2019-04-07T02:37:24.954Z,80.90
2019-04-07T02:40:00.108Z,80.90
2019-04-07T02:42:42.574Z,80.60
2019-04-07T02:45:27.010Z,80.40
2019-04-07T02:48:05.161Z,80.00
2019-04-07T02:50:46.820Z,80.20
2019-04-07T02:53:30.876Z,80.90
2019-04-07T02:56:08.084Z,80.70
2019-04-07T02:58:43.151Z,80.60
2019-04-07T03:01:22.082Z,80.20
2019-04-07T03:04:24.558Z,79.90
2019-04-07T03:07:07.187Z,80.50
2019-04-07T03:10:08.863Z,80.40
2019-04-07T03:12:59.308Z,80.40
2019-04-07T03:15:38.863Z,80.30
2019-04-07T03:18:27.063Z,80.30
2019-04-07T03:21:06.168Z,80.00
2019-04-07T03:24:09.392Z,79.80
2019-04-07T03:27:05.835Z,79.80
2019-04-07T03:30:11.318Z,80.20
2019-04-07T03:33:00.227Z,79.90
2019-04-07T03:35:53.145Z,79.50
2019-04-07T03:38:40.942Z,79.70
2019-04-07T03:41:13.972Z,79.30
2019-04-07T03:44:07.922Z,79.70
2019-04-07T03:46:59.644Z,79.70
2019-04-07T03:49:35.179Z,79.80
2019-04-07T03:52:19.412Z,79.80
2019-04-07T03:55:02.255Z,79.50
2019-04-07T03:57:50.681Z,79.60
2019-04-07T04:01:13.681Z,79.40
2019-04-07T04:03:48.375Z,79.10
2019-04-07T04:06:51.508Z,79.10
2019-04-07T04:09:38.360Z,79.10
2019-04-07T04:12:18.705Z,79.00
2019-04-07T04:14:54.783Z,79.40
2019-04-07T04:17:23.605Z,79.30
2019-04-07T04:19:51.902Z,78.80
2019-04-07T04:22:19.241Z,78.70
2019-04-07T04:24:49.951Z,78.80
2019-04-07T04:27:17.439Z,78.70
2019-04-07T04:29:45.411Z,79.00
2019-04-07T04:32:13.399Z,79.10
2019-04-07T04:34:41.059Z,78.90
2019-04-07T04:37:08.195Z,79.00
2019-04-07T04:39:35.788Z,78.80
2019-04-07T04:42:03.983Z,78.90
2019-04-07T04:44:31.744Z,78.90
2019-04-07T04:47:01.268Z,78.80
2019-04-07T04:49:28.880Z,78.60
2019-04-07T04:51:57.099Z,78.40
2019-04-07T04:54:25.820Z,78.70
2019-04-07T04:56:53.526Z,78.50
2019-04-07T04:59:21.737Z,78.40
2019-04-07T05:01:48.875Z,78.50
2019-04-07T05:04:16.155Z,78.50
2019-04-07T05:06:44.565Z,78.40
2019-04-07T05:09:13.335Z,78.70
2019-04-07T05:11:41.714Z,78.70
2019-04-07T05:14:10.427Z,78.70
2019-04-07T05:16:40.251Z,78.80
2019-04-07T05:19:08.747Z,78.60
2019-04-07T05:21:37.075Z,78.40
2019-04-07T05:24:05.725Z,78.40
2019-04-07T05:26:34.520Z,78.10
2019-04-07T05:29:02.736Z,78.10
2019-04-07T05:31:31.496Z,78.20
2019-04-07T05:34:00.275Z,78.20
2019-04-07T05:36:27.907Z,78.30
2019-04-07T05:38:56.254Z,78.60
2019-04-07T05:41:23.991Z,78.60
2019-04-07T05:43:52.436Z,79.30
2019-04-07T05:46:20.554Z,78.80
2019-04-07T05:48:50.511Z,78.80
2019-04-07T05:51:16.659Z,79.10
2019-04-07T05:53:47.192Z,78.60
2019-04-07T05:56:14.732Z,78.50
2019-04-07T05:58:42.930Z,78.70
2019-04-07T06:01:11.709Z,78.50
2019-04-07T06:03:42.824Z,78.50
2019-04-07T06:06:08.329Z,78.80
2019-04-07T06:08:39.064Z,78.80
2019-04-07T06:11:05.010Z,78.60
2019-04-07T06:13:32.953Z,78.40
2019-04-07T06:16:02.010Z,78.60
2019-04-07T06:18:32.695Z,78.40
2019-04-07T06:20:58.545Z,78.10
2019-04-07T06:23:29.500Z,77.60
2019-04-07T06:25:57.318Z,77.10
2019-04-07T06:28:24.870Z,77.00
2019-04-07T06:30:53.057Z,77.00
2019-04-07T06:33:20.189Z,76.60
2019-04-07T06:35:47.714Z,76.70
2019-04-07T06:38:15.574Z,76.60
2019-04-07T06:40:43.742Z,76.00
2019-04-07T06:43:10.665Z,75.30
2019-04-07T06:45:54.176Z,75.10
2019-04-07T06:48:20.176Z,75.10
2019-04-07T06:51:11.082Z,74.60
2019-04-07T06:53:51.372Z,74.20
2019-04-07T06:56:26.644Z,74.60
2019-04-07T06:59:19.473Z,73.90
2019-04-07T07:01:59.512Z,73.90
2019-04-07T07:04:45.496Z,73.50
2019-04-07T07:07:47.773Z,73.80
2019-04-07T07:10:39.898Z,73.60
2019-04-07T07:13:33.352Z,72.80
2019-04-07T07:16:10.791Z,73.00
2019-04-07T07:18:48.762Z,72.80
2019-04-07T07:21:29.572Z,73.10
2019-04-07T07:23:58.933Z,71.90
2019-04-07T07:26:26.640Z,72.80
2019-04-07T07:28:54.310Z,72.60
2019-04-07T07:31:25.017Z,72.60
2019-04-07T07:33:51.255Z,70.40
2019-04-07T07:36:20.797Z,71.10
2019-04-07T07:38:59.096Z,71.80
2019-04-07T07:41:21.136Z,71.70
2019-04-07T07:43:48.198Z,71.30
2019-04-07T07:46:18.165Z,71.40
2019-04-07T07:48:44.756Z,71.80
2019-04-07T07:51:13.276Z,71.40
2019-04-07T07:53:41.524Z,71.30
2019-04-07T07:56:12.105Z,71.20
2019-04-07T07:58:38.480Z,71.50
2019-04-07T08:01:05.727Z,71.70
2019-04-07T08:03:32.860Z,71.50
2019-04-07T08:06:04.646Z,72.00
2019-04-07T08:08:31.028Z,71.90
2019-04-07T08:11:01.501Z,72.00
2019-04-07T08:13:27.739Z,71.50
2019-04-07T08:15:57.175Z,71.40
2019-04-07T08:18:26.191Z,71.70
2019-04-07T08:20:54.852Z,71.50
2019-04-07T08:23:23.724Z,71.50
2019-04-07T08:25:52.899Z,71.30
2019-04-07T08:28:20.926Z,71.20
2019-04-07T08:30:50.179Z,72.00
2019-04-07T08:33:19.095Z,71.40
2019-04-07T08:35:47.956Z,70.90
2019-04-07T08:38:19.963Z,70.70
2019-04-07T08:40:46.847Z,70.70
2019-04-07T08:43:14.876Z,70.60
2019-04-07T08:45:42.477Z,70.70
2019-04-07T08:48:10.894Z,70.50
2019-04-07T08:50:38.079Z,70.30
2019-04-07T08:53:06.079Z,70.50
2019-04-07T08:55:34.534Z,70.60
2019-04-07T08:58:04.261Z,70.50
2019-04-07T09:00:34.083Z,70.60
2019-04-07T09:03:05.503Z,70.70
2019-04-07T09:05:31.296Z,70.80
2019-04-07T09:08:03.513Z,70.70
2019-04-07T09:10:34.518Z,70.50
2019-04-07T09:13:03.633Z,70.30
2019-04-07T09:15:43.654Z,70.40
2019-04-07T09:18:20.488Z,70.50
2019-04-07T09:21:15.154Z,70.40
2019-04-07T09:24:03.795Z,70.50
2019-04-07T09:26:40.611Z,70.80
2019-04-07T09:29:15.183Z,70.90
2019-04-07T09:32:02.447Z,70.90
2019-04-07T09:34:54.022Z,71.10
2019-04-07T09:37:40.146Z,71.20
2019-04-07T09:40:17.318Z,71.00
2019-04-07T09:43:01.387Z,70.50
2019-04-07T09:45:51.840Z,69.00
2019-04-07T09:48:48.716Z,68.30
2019-04-07T09:51:41.339Z,68.80
2019-04-07T09:54:37.563Z,68.10
2019-04-07T09:57:15.659Z,67.60
2019-04-07T10:00:01.968Z,67.50
2019-04-07T10:02:40.960Z,67.70
2019-04-07T10:05:34.145Z,67.70
2019-04-07T10:08:13.949Z,66.70
2019-04-07T10:11:14.065Z,64.80
2019-04-07T10:13:53.074Z,65.40
2019-04-07T10:16:39.449Z,65.20
2019-04-07T10:19:33.228Z,64.00
2019-04-07T10:22:12.290Z,64.50
2019-04-07T10:25:10.721Z,64.60
2019-04-07T10:27:48.745Z,64.50
2019-04-07T10:30:36.012Z,63.40
2019-04-07T10:33:19.031Z,63.30
2019-04-07T10:36:04.971Z,63.80
2019-04-07T10:38:48.160Z,62.80
2019-04-07T10:41:39.328Z,63.00
2019-04-07T10:44:27.015Z,62.60
2019-04-07T10:47:04.943Z,61.50
2019-04-07T10:50:05.022Z,62.10
2019-04-07T10:52:43.769Z,62.20
2019-04-07T10:55:18.603Z,62.10
2019-04-07T10:58:04.589Z,61.50
2019-04-07T11:01:04.168Z,61.30
2019-04-07T11:04:01.159Z,60.40
2019-04-07T11:06:39.627Z,60.50
2019-04-07T11:09:26.645Z,61.40
2019-04-07T11:12:16.168Z,61.70
2019-04-07T11:14:52.462Z,60.70
2019-04-07T11:17:39.763Z,60.90
2019-04-07T11:20:19.382Z,57.50
2019-04-07T11:23:05.155Z,58.40
2019-04-07T11:25:53.728Z,59.70
2019-04-07T11:28:29.353Z,59.50
2019-04-07T11:31:12.344Z,59.40
2019-04-07T11:33:57.165Z,59.90
2019-04-07T11:36:43.252Z,59.50
2019-04-07T11:39:41.403Z,59.70
2019-04-07T11:42:28.461Z,59.70
2019-04-07T11:45:16.010Z,59.80
2019-04-07T11:48:15.617Z,59.40
2019-04-07T11:51:03.396Z,59.90
2019-04-07T11:53:50.275Z,59.30
2019-04-07T11:56:47.731Z,58.90
2019-04-07T11:59:29.107Z,58.80
2019-04-07T12:02:12.581Z,59.30
2019-04-07T12:05:06.439Z,59.40
2019-04-07T12:08:03.649Z,58.90
2019-04-07T12:11:05.331Z,59.30
2019-04-07T12:13:58.622Z,59.40
2019-04-07T12:16:45.965Z,59.20
2019-04-07T12:19:33.354Z,59.30
2019-04-07T12:22:14.342Z,59.60
2019-04-07T12:25:17.188Z,59.00
2019-04-07T12:28:05.398Z,59.10
2019-04-07T12:30:41.495Z,59.00
2019-04-07T12:33:31.267Z,58.90
2019-04-07T12:36:18.513Z,59.00
2019-04-07T12:39:05.361Z,58.60
2019-04-07T12:41:56.846Z,58.80
2019-04-07T12:44:32.000Z,59.60
2019-04-07T12:47:20.847Z,59.40
2019-04-07T12:50:06.342Z,58.30
2019-04-07T12:52:46.282Z,57.70
2019-04-07T12:55:22.533Z,57.50
2019-04-07T12:58:13.011Z,58.50
2019-04-07T13:01:00.028Z,58.60
2019-04-07T13:03:36.474Z,58.20
2019-04-07T13:06:14.636Z,58.50
2019-04-07T13:09:01.199Z,58.60
2019-04-07T13:11:50.355Z,58.50
2019-04-07T13:14:44.029Z,58.90
2019-04-07T13:17:34.215Z,58.80
2019-04-07T13:20:10.802Z,58.70
2019-04-07T13:22:45.611Z,58.90
2019-04-07T13:25:41.894Z,59.20
2019-04-07T13:28:16.738Z,59.20
2019-04-07T13:31:09.110Z,58.90
2019-04-07T13:33:44.655Z,59.30
2019-04-07T13:36:30.124Z,59.40
2019-04-07T13:39:12.165Z,59.60
2019-04-07T13:42:00.250Z,59.50
2019-04-07T13:44:47.300Z,59.30
2019-04-07T13:47:43.203Z,59.40
2019-04-07T13:50:31.085Z,59.40
2019-04-07T13:53:29.671Z,59.60
2019-04-07T13:56:26.853Z,59.70
2019-04-07T13:59:20.470Z,59.90
2019-04-07T14:01:55.381Z,59.80
2019-04-07T14:04:43.511Z,59.70
2019-04-07T14:07:30.670Z,59.80
2019-04-07T14:10:08.160Z,59.80
2019-04-07T14:12:54.368Z,59.70
2019-04-07T14:15:40.934Z,59.90
2019-04-07T14:18:27.781Z,60.20
2019-04-07T14:21:24.031Z,59.90
2019-04-07T14:24:10.139Z,59.70
2019-04-07T14:27:03.294Z,59.70
2019-04-07T14:29:49.976Z,59.50
2019-04-07T14:32:45.324Z,59.60
2019-04-07T14:35:30.466Z,59.10
2019-04-07T14:38:16.053Z,59.20
2019-04-07T14:40:56.420Z,59.00
2019-04-07T14:43:38.679Z,58.50
2019-04-07T14:46:24.557Z,58.60
2019-04-07T14:49:00.076Z,59.00
2019-04-07T14:51:50.074Z,58.60
2019-04-07T14:54:30.892Z,58.30
2019-04-07T14:57:08.775Z,58.50
2019-04-07T14:59:41.710Z,57.90
2019-04-07T15:02:10.565Z,58.60
2019-04-07T15:04:46.743Z,58.50
2019-04-07T15:07:40.830Z,58.20
2019-04-07T15:10:16.934Z,58.00
2019-04-07T15:12:57.969Z,58.00
2019-04-07T15:15:26.548Z,58.40
2019-04-07T15:17:55.175Z,58.20
2019-04-07T15:20:22.465Z,58.20
2019-04-07T15:22:50.573Z,58.20
2019-04-07T15:25:18.671Z,57.70
2019-04-07T15:27:47.727Z,57.80
2019-04-07T15:30:16.724Z,58.70
2019-04-07T15:32:45.907Z,57.90
2019-04-07T15:35:15.121Z,58.30
2019-04-07T15:37:43.411Z,58.60
2019-04-07T15:40:12.022Z,58.10
2019-04-07T15:42:44.167Z,58.30
2019-04-07T15:45:12.035Z,58.50
2019-04-07T15:47:40.639Z,58.60
2019-04-07T15:50:08.467Z,58.90
2019-04-07T15:52:36.972Z,59.20
2019-04-07T15:55:06.316Z,59.20
2019-04-07T15:57:33.633Z,59.10
2019-04-07T16:00:03.691Z,59.10
2019-04-07T16:02:30.455Z,59.50
2019-04-07T16:05:00.431Z,59.70
2019-04-07T16:07:27.325Z,60.10
2019-04-07T16:09:56.964Z,60.20
2019-04-07T16:12:25.236Z,60.20
2019-04-07T16:14:53.580Z,60.10
2019-04-07T16:17:21.972Z,60.00
2019-04-07T16:19:53.114Z,60.10
2019-04-07T16:22:20.047Z,60.60
2019-04-07T16:24:51.577Z,60.90
2019-04-07T16:27:18.084Z,61.00
2019-04-07T16:29:46.900Z,61.00
2019-04-07T16:32:15.552Z,61.40
2019-04-07T16:34:43.652Z,61.50
2019-04-07T16:37:11.736Z,61.60
2019-04-07T16:39:38.972Z,61.30
2019-04-07T16:42:06.496Z,61.10
2019-04-07T16:44:36.287Z,61.30
2019-04-07T16:47:04.160Z,61.30
2019-04-07T16:49:32.622Z,61.50
2019-04-07T16:52:02.195Z,61.60
2019-04-07T16:54:30.173Z,61.50
2019-04-07T16:56:59.414Z,61.10
2019-04-07T16:59:27.542Z,61.30
2019-04-07T17:01:57.003Z,62.00
2019-04-07T17:04:25.695Z,61.60
2019-04-07T17:07:00.235Z,61.90
2019-04-07T17:09:25.916Z,62.50
2019-04-07T17:11:52.215Z,62.30
2019-04-07T17:14:22.496Z,62.30
2019-04-07T17:16:50.385Z,62.30
2019-04-07T17:19:20.033Z,62.10
2019-04-07T17:21:47.913Z,62.30
2019-04-07T17:24:15.537Z,62.70
2019-04-07T17:26:43.545Z,62.60
2019-04-07T17:29:11.199Z,62.50
2019-04-07T17:31:38.719Z,63.00
2019-04-07T17:34:09.820Z,63.10
2019-04-07T17:36:35.450Z,63.50
2019-04-07T17:39:28.087Z,63.90
2019-04-07T17:41:57.291Z,64.60
2019-04-07T17:44:35.147Z,65.10
2019-04-07T17:47:12.275Z,65.10
2019-04-07T17:49:59.410Z,64.80
2019-04-07T17:52:40.366Z,64.90
2019-04-07T17:55:28.035Z,64.90
2019-04-07T17:58:09.165Z,65.30
2019-04-07T18:01:09.006Z,65.50
2019-04-07T18:03:47.594Z,65.60
2019-04-07T18:06:40.483Z,65.70
2019-04-07T18:09:29.745Z,66.10
2019-04-07T18:12:22.631Z,66.50
2019-04-07T18:15:10.669Z,66.40
2019-04-07T18:18:11.009Z,66.90
2019-04-07T18:21:16.595Z,67.40
2019-04-07T18:24:03.507Z,67.50
2019-04-07T18:26:40.208Z,67.70
2019-04-07T18:29:32.230Z,67.70
2019-04-07T18:32:27.466Z,67.40
2019-04-07T18:35:02.553Z,67.10
2019-04-07T18:37:42.312Z,68.20
2019-04-07T18:40:28.509Z,67.90
2019-04-07T18:43:12.209Z,68.10
2019-04-07T18:45:52.708Z,68.20
2019-04-07T18:48:40.246Z,68.20
2019-04-07T18:51:33.799Z,68.10
2019-04-07T18:54:10.803Z,69.00
2019-04-07T18:57:14.030Z,68.90
2019-04-07T19:00:04.058Z,68.70
2019-04-07T19:02:45.980Z,68.90
2019-04-07T19:05:40.626Z,68.80
2019-04-07T19:08:21.667Z,68.40
2019-04-07T19:11:14.886Z,68.50
2019-04-07T19:14:20.418Z,68.90
2019-04-07T19:16:34.359Z,69.20
2019-04-07T19:19:30.243Z,69.10
2019-04-07T19:22:04.920Z,69.50
2019-04-07T19:25:10.857Z,69.70
2019-04-07T19:27:55.360Z,69.50
2019-04-07T19:30:51.105Z,70.50
2019-04-07T19:33:37.641Z,70.50
2019-04-07T19:36:25.412Z,70.50
2019-04-07T19:39:11.203Z,70.30
2019-04-07T19:41:48.869Z,70.60
2019-04-07T19:44:50.955Z,70.80
2019-04-07T19:47:36.716Z,70.70
2019-04-07T19:50:32.789Z,70.60
2019-04-07T19:53:22.823Z,70.40
2019-04-07T19:56:14.652Z,71.50
2019-04-07T19:59:10.020Z,71.00
2019-04-07T20:02:03.668Z,71.20
2019-04-07T20:04:51.025Z,71.30
2019-04-07T20:07:23.058Z,71.30
2019-04-07T20:10:19.896Z,71.40
2019-04-07T20:13:05.559Z,71.30
2019-04-07T20:15:56.168Z,71.30
2019-04-07T20:18:59.683Z,71.20
2019-04-07T20:21:48.566Z,71.20
2019-04-07T20:24:50.282Z,71.40
2019-04-07T20:27:36.190Z,71.40
2019-04-07T20:30:28.776Z,71.40
2019-04-07T20:33:16.396Z,71.30
2019-04-07T20:35:53.343Z,71.40
2019-04-07T20:38:44.287Z,71.90
2019-04-07T20:41:31.486Z,71.90
2019-04-07T20:44:29.589Z,71.80
2019-04-07T20:47:26.633Z,71.70
2019-04-07T20:50:15.235Z,71.70
2019-04-07T20:53:18.335Z,71.70
2019-04-07T20:56:11.519Z,71.50
2019-04-07T20:59:04.046Z,71.40
2019-04-07T21:01:43.015Z,71.80
2019-04-07T21:04:26.273Z,71.90
2019-04-07T21:07:20.418Z,72.00
2019-04-07T21:10:12.234Z,72.30
2019-04-07T21:13:02.384Z,72.70
2019-04-07T21:15:51.583Z,72.50
2019-04-07T21:18:44.833Z,72.80
2019-04-07T21:21:23.422Z,72.90
2019-04-07T21:23:57.871Z,73.10
2019-04-07T21:26:39.200Z,72.80
2019-04-07T21:29:26.759Z,73.20
2019-04-07T21:32:12.273Z,73.50
2019-04-07T21:35:01.910Z,73.70
2019-04-07T21:37:40.867Z,73.60
2019-04-07T21:40:20.899Z,73.60
2019-04-07T21:43:25.972Z,73.70
2019-04-07T21:46:15.271Z,74.00
2019-04-07T21:48:51.275Z,73.80
2019-04-07T21:51:45.627Z,73.90
2019-04-07T21:54:17.260Z,73.90
2019-04-07T21:57:01.172Z,74.10
2019-04-07T21:59:34.047Z,73.90
2019-04-07T22:02:26.820Z,73.80
2019-04-07T22:05:13.514Z,73.80
2019-04-07T22:08:03.761Z,74.00
2019-04-07T22:10:30.697Z,73.80
2019-04-07T22:13:01.825Z,73.80
2019-04-07T22:15:27.221Z,74.10
2019-04-07T22:17:54.299Z,74.20
2019-04-07T22:20:21.643Z,74.30
2019-04-07T22:22:49.704Z,74.30
2019-04-07T22:25:30.521Z,74.40
2019-04-07T22:27:59.100Z,74.20
2019-04-07T22:30:26.261Z,74.10
2019-04-07T22:32:54.177Z,74.30
2019-04-07T22:35:22.107Z,74.40
2019-04-07T22:37:50.265Z,74.80
2019-04-07T22:40:19.377Z,74.90
2019-04-07T22:42:48.830Z,74.70
2019-04-07T22:45:16.620Z,74.90
2019-04-07T22:47:44.539Z,74.80
2019-04-07T22:50:12.899Z,75.00
2019-04-07T22:52:40.627Z,75.10
2019-04-07T22:55:08.747Z,75.10
2019-04-07T22:57:38.487Z,75.00
2019-04-07T23:00:07.890Z,75.00
2019-04-07T23:02:36.122Z,75.20
2019-04-07T23:05:05.046Z,75.30
2019-04-07T23:07:32.527Z,75.40
2019-04-07T23:10:00.301Z,75.30
2019-04-07T23:12:28.598Z,75.50
2019-04-07T23:14:56.248Z,75.70
2019-04-07T23:17:23.900Z,75.40
2019-04-07T23:19:50.932Z,76.20
2019-04-07T23:22:20.027Z,76.30
2019-04-07T23:24:48.496Z,75.70
2019-04-07T23:27:15.892Z,75.80
2019-04-07T23:29:42.935Z,76.00
2019-04-07T23:32:11.681Z,76.50
2019-04-07T23:34:39.429Z,75.80
2019-04-07T23:37:08.448Z,75.90
2019-04-07T23:39:37.703Z,75.80
2019-04-07T23:42:05.631Z,75.80
2019-04-07T23:44:35.243Z,76.00
2019-04-07T23:47:03.037Z,76.00
2019-04-07T23:49:30.383Z,76.30
2019-04-07T23:51:58.139Z,76.30
2019-04-07T23:54:25.437Z,76.50
2019-04-07T23:56:54.009Z,76.50
2019-04-07T23:59:21.619Z,76.50
